sensor_id;sensor_type;location;lat;lon;timestamp;P1;durP1;ratioP1;P2;durP2;ratioP2
11990;SDS011;6055;52.522;13.446;2022-07-05T00:00:45;10.35;;;4.90;;
11990;SDS011;6055;52.522;13.446;2022-07-05T00:03:11;6.40;;;4.22;;
11990;SDS011;6055;52.522;13.446;2022-07-05T00:05:36;8.15;;;4.93;;
11990;SDS011;6055;52.522;13.446;2022-07-05T00:08:03;7.43;;;4.35;;
11990;SDS011;6055;52.522;13.446;2022-07-05T00:10:30;7.00;;;5.10;;
11990;SDS011;6055;52.522;13.446;2022-07-05T00:12:56;7.97;;;4.93;;
11990;SDS011;6055;52.522;13.446;2022-07-05T00:15:22;7.32;;;4.72;;
11990;SDS011;6055;52.522;13.446;2022-07-05T00:17:48;7.80;;;4.30;;
11990;SDS011;6055;52.522;13.446;2022-07-05T00:20:14;6.70;;;4.38;;
11990;SDS011;6055;52.522;13.446;2022-07-05T00:22:39;9.43;;;5.82;;
11990;SDS011;6055;52.522;13.446;2022-07-05T00:25:05;8.55;;;5.40;;
11990;SDS011;6055;52.522;13.446;2022-07-05T00:27:31;6.57;;;3.90;;
11990;SDS011;6055;52.522;13.446;2022-07-05T00:29:56;4.47;;;3.58;;
11990;SDS011;6055;52.522;13.446;2022-07-05T00:32:22;5.25;;;3.67;;
11990;SDS011;6055;52.522;13.446;2022-07-05T00:34:47;6.22;;;3.92;;
11990;SDS011;6055;52.522;13.446;2022-07-05T00:37:13;7.05;;;4.43;;
11990;SDS011;6055;52.522;13.446;2022-07-05T00:39:38;4.75;;;3.20;;
11990;SDS011;6055;52.522;13.446;2022-07-05T00:42:04;5.85;;;3.33;;
11990;SDS011;6055;52.522;13.446;2022-07-05T00:44:31;5.35;;;3.30;;
11990;SDS011;6055;52.522;13.446;2022-07-05T00:47:02;6.93;;;3.42;;
11990;SDS011;6055;52.522;13.446;2022-07-05T00:49:32;4.72;;;3.55;;
11990;SDS011;6055;52.522;13.446;2022-07-05T00:51:59;6.53;;;3.25;;
11990;SDS011;6055;52.522;13.446;2022-07-05T00:54:26;3.90;;;3.30;;
11990;SDS011;6055;52.522;13.446;2022-07-05T00:56:52;4.43;;;3.10;;
11990;SDS011;6055;52.522;13.446;2022-07-05T00:59:19;4.80;;;2.95;;
11990;SDS011;6055;52.522;13.446;2022-07-05T01:01:44;3.58;;;2.72;;
11990;SDS011;6055;52.522;13.446;2022-07-05T01:04:10;4.10;;;2.80;;
11990;SDS011;6055;52.522;13.446;2022-07-05T01:06:37;3.78;;;2.85;;
11990;SDS011;6055;52.522;13.446;2022-07-05T01:09:04;3.85;;;2.80;;
11990;SDS011;6055;52.522;13.446;2022-07-05T01:11:30;3.80;;;2.80;;
11990;SDS011;6055;52.522;13.446;2022-07-05T01:13:58;3.33;;;2.83;;
11990;SDS011;6055;52.522;13.446;2022-07-05T01:16:24;2.95;;;2.38;;
11990;SDS011;6055;52.522;13.446;2022-07-05T01:18:50;3.35;;;2.70;;
11990;SDS011;6055;52.522;13.446;2022-07-05T01:21:16;4.03;;;2.63;;
11990;SDS011;6055;52.522;13.446;2022-07-05T01:23:44;4.88;;;2.20;;
11990;SDS011;6055;52.522;13.446;2022-07-05T01:26:10;3.22;;;2.40;;
11990;SDS011;6055;52.522;13.446;2022-07-05T01:28:36;4.35;;;2.20;;
11990;SDS011;6055;52.522;13.446;2022-07-05T01:31:01;2.40;;;1.83;;
11990;SDS011;6055;52.522;13.446;2022-07-05T01:33:27;2.75;;;2.17;;
11990;SDS011;6055;52.522;13.446;2022-07-05T01:35:54;5.00;;;1.77;;
11990;SDS011;6055;52.522;13.446;2022-07-05T01:38:21;2.78;;;1.95;;
11990;SDS011;6055;52.522;13.446;2022-07-05T01:40:46;4.60;;;2.08;;
11990;SDS011;6055;52.522;13.446;2022-07-05T01:43:16;2.35;;;1.73;;
11990;SDS011;6055;52.522;13.446;2022-07-05T01:45:43;2.83;;;1.92;;
11990;SDS011;6055;52.522;13.446;2022-07-05T01:48:15;5.05;;;2.03;;
11990;SDS011;6055;52.522;13.446;2022-07-05T01:50:51;2.70;;;1.80;;
11990;SDS011;6055;52.522;13.446;2022-07-05T01:53:19;2.53;;;1.98;;
11990;SDS011;6055;52.522;13.446;2022-07-05T01:55:47;2.53;;;1.73;;
11990;SDS011;6055;52.522;13.446;2022-07-05T01:58:13;2.85;;;1.83;;
11990;SDS011;6055;52.522;13.446;2022-07-05T02:00:42;2.85;;;1.88;;
11990;SDS011;6055;52.522;13.446;2022-07-05T02:03:09;3.47;;;1.80;;
11990;SDS011;6055;52.522;13.446;2022-07-05T02:05:35;2.78;;;1.92;;
11990;SDS011;6055;52.522;13.446;2022-07-05T02:08:01;2.17;;;1.60;;
11990;SDS011;6055;52.522;13.446;2022-07-05T02:10:26;1.92;;;1.50;;
11990;SDS011;6055;52.522;13.446;2022-07-05T02:12:52;1.98;;;1.60;;
11990;SDS011;6055;52.522;13.446;2022-07-05T02:15:17;2.03;;;1.67;;
11990;SDS011;6055;52.522;13.446;2022-07-05T02:17:43;2.10;;;1.60;;
11990;SDS011;6055;52.522;13.446;2022-07-05T02:20:08;2.35;;;1.60;;
11990;SDS011;6055;52.522;13.446;2022-07-05T02:22:34;1.80;;;1.63;;
11990;SDS011;6055;52.522;13.446;2022-07-05T02:25:00;3.25;;;1.55;;
11990;SDS011;6055;52.522;13.446;2022-07-05T02:27:25;2.35;;;1.60;;
11990;SDS011;6055;52.522;13.446;2022-07-05T02:29:51;1.95;;;1.40;;
11990;SDS011;6055;52.522;13.446;2022-07-05T02:32:17;1.60;;;1.40;;
11990;SDS011;6055;52.522;13.446;2022-07-05T02:34:42;2.35;;;1.38;;
11990;SDS011;6055;52.522;13.446;2022-07-05T02:37:08;2.00;;;1.50;;
11990;SDS011;6055;52.522;13.446;2022-07-05T02:39:33;1.83;;;1.50;;
11990;SDS011;6055;52.522;13.446;2022-07-05T02:41:59;2.05;;;1.55;;
11990;SDS011;6055;52.522;13.446;2022-07-05T02:44:24;1.77;;;1.52;;
11990;SDS011;6055;52.522;13.446;2022-07-05T02:46:50;1.70;;;1.45;;
11990;SDS011;6055;52.522;13.446;2022-07-05T02:49:15;4.25;;;1.67;;
11990;SDS011;6055;52.522;13.446;2022-07-05T02:51:41;2.83;;;1.55;;
11990;SDS011;6055;52.522;13.446;2022-07-05T02:54:06;1.65;;;1.50;;
11990;SDS011;6055;52.522;13.446;2022-07-05T02:56:32;1.70;;;1.60;;
11990;SDS011;6055;52.522;13.446;2022-07-05T02:58:57;1.65;;;1.50;;
11990;SDS011;6055;52.522;13.446;2022-07-05T03:01:23;2.65;;;1.85;;
11990;SDS011;6055;52.522;13.446;2022-07-05T03:03:48;1.60;;;1.48;;
11990;SDS011;6055;52.522;13.446;2022-07-05T03:06:14;2.53;;;1.38;;
11990;SDS011;6055;52.522;13.446;2022-07-05T03:08:40;3.45;;;1.60;;
11990;SDS011;6055;52.522;13.446;2022-07-05T03:11:06;2.45;;;1.70;;
11990;SDS011;6055;52.522;13.446;2022-07-05T03:13:31;3.78;;;2.00;;
11990;SDS011;6055;52.522;13.446;2022-07-05T03:15:57;2.58;;;1.70;;
11990;SDS011;6055;52.522;13.446;2022-07-05T03:18:23;2.50;;;1.55;;
11990;SDS011;6055;52.522;13.446;2022-07-05T03:20:48;3.58;;;1.92;;
11990;SDS011;6055;52.522;13.446;2022-07-05T03:23:14;2.95;;;1.55;;
11990;SDS011;6055;52.522;13.446;2022-07-05T03:25:39;3.25;;;1.50;;
11990;SDS011;6055;52.522;13.446;2022-07-05T03:28:05;3.40;;;1.73;;
11990;SDS011;6055;52.522;13.446;2022-07-05T03:30:30;1.95;;;1.77;;
11990;SDS011;6055;52.522;13.446;2022-07-05T03:32:56;1.63;;;1.52;;
11990;SDS011;6055;52.522;13.446;2022-07-05T03:35:21;3.03;;;1.77;;
11990;SDS011;6055;52.522;13.446;2022-07-05T03:37:47;1.80;;;1.58;;
11990;SDS011;6055;52.522;13.446;2022-07-05T03:40:12;2.08;;;1.63;;
11990;SDS011;6055;52.522;13.446;2022-07-05T03:42:38;2.35;;;1.80;;
11990;SDS011;6055;52.522;13.446;2022-07-05T03:45:04;2.00;;;1.80;;
11990;SDS011;6055;52.522;13.446;2022-07-05T03:47:30;5.32;;;2.30;;
11990;SDS011;6055;52.522;13.446;2022-07-05T03:49:55;4.40;;;1.90;;
11990;SDS011;6055;52.522;13.446;2022-07-05T03:52:21;2.25;;;1.85;;
11990;SDS011;6055;52.522;13.446;2022-07-05T03:54:46;2.63;;;1.70;;
11990;SDS011;6055;52.522;13.446;2022-07-05T03:57:12;2.13;;;1.33;;
11990;SDS011;6055;52.522;13.446;2022-07-05T03:59:38;3.83;;;1.55;;
11990;SDS011;6055;52.522;13.446;2022-07-05T04:02:04;1.63;;;1.40;;
11990;SDS011;6055;52.522;13.446;2022-07-05T04:04:30;1.60;;;1.50;;
11990;SDS011;6055;52.522;13.446;2022-07-05T04:06:55;2.95;;;1.50;;
11990;SDS011;6055;52.522;13.446;2022-07-05T04:09:21;1.35;;;1.25;;
11990;SDS011;6055;52.522;13.446;2022-07-05T04:11:46;1.58;;;1.48;;
11990;SDS011;6055;52.522;13.446;2022-07-05T04:14:12;3.17;;;1.75;;
11990;SDS011;6055;52.522;13.446;2022-07-05T04:16:37;3.22;;;1.60;;
11990;SDS011;6055;52.522;13.446;2022-07-05T04:19:03;3.15;;;1.60;;
11990;SDS011;6055;52.522;13.446;2022-07-05T04:21:29;3.15;;;1.80;;
11990;SDS011;6055;52.522;13.446;2022-07-05T04:23:54;2.40;;;1.60;;
11990;SDS011;6055;52.522;13.446;2022-07-05T04:26:20;1.55;;;1.42;;
11990;SDS011;6055;52.522;13.446;2022-07-05T04:28:45;3.63;;;1.58;;
11990;SDS011;6055;52.522;13.446;2022-07-05T04:31:11;2.20;;;1.20;;
11990;SDS011;6055;52.522;13.446;2022-07-05T04:33:36;1.30;;;1.20;;
11990;SDS011;6055;52.522;13.446;2022-07-05T04:36:02;1.60;;;1.50;;
11990;SDS011;6055;52.522;13.446;2022-07-05T04:38:27;1.40;;;1.17;;
11990;SDS011;6055;52.522;13.446;2022-07-05T04:40:54;1.85;;;1.38;;
11990;SDS011;6055;52.522;13.446;2022-07-05T04:43:20;2.30;;;1.40;;
11990;SDS011;6055;52.522;13.446;2022-07-05T04:45:45;2.75;;;1.40;;
11990;SDS011;6055;52.522;13.446;2022-07-05T04:48:11;1.98;;;1.42;;
11990;SDS011;6055;52.522;13.446;2022-07-05T04:50:36;2.10;;;1.38;;
11990;SDS011;6055;52.522;13.446;2022-07-05T04:53:02;2.03;;;1.08;;
11990;SDS011;6055;52.522;13.446;2022-07-05T04:55:27;2.55;;;1.30;;
11990;SDS011;6055;52.522;13.446;2022-07-05T04:57:53;2.58;;;1.35;;
11990;SDS011;6055;52.522;13.446;2022-07-05T05:00:18;2.15;;;1.30;;
11990;SDS011;6055;52.522;13.446;2022-07-05T05:02:44;2.00;;;1.40;;
11990;SDS011;6055;52.522;13.446;2022-07-05T05:05:09;2.50;;;1.50;;
11990;SDS011;6055;52.522;13.446;2022-07-05T05:07:35;5.68;;;1.50;;
11990;SDS011;6055;52.522;13.446;2022-07-05T05:10:02;1.55;;;1.30;;
11990;SDS011;6055;52.522;13.446;2022-07-05T05:12:29;2.70;;;1.25;;
11990;SDS011;6055;52.522;13.446;2022-07-05T05:14:55;1.63;;;1.48;;
11990;SDS011;6055;52.522;13.446;2022-07-05T05:17:20;2.08;;;1.38;;
11990;SDS011;6055;52.522;13.446;2022-07-05T05:19:45;1.70;;;1.40;;
11990;SDS011;6055;52.522;13.446;2022-07-05T05:22:11;2.75;;;1.48;;
11990;SDS011;6055;52.522;13.446;2022-07-05T05:24:37;2.22;;;1.25;;
11990;SDS011;6055;52.522;13.446;2022-07-05T05:27:03;4.13;;;1.33;;
11990;SDS011;6055;52.522;13.446;2022-07-05T05:29:28;1.73;;;1.23;;
11990;SDS011;6055;52.522;13.446;2022-07-05T05:31:54;1.75;;;1.02;;
11990;SDS011;6055;52.522;13.446;2022-07-05T05:34:20;2.22;;;1.15;;
11990;SDS011;6055;52.522;13.446;2022-07-05T05:36:45;1.60;;;1.50;;
11990;SDS011;6055;52.522;13.446;2022-07-05T05:39:12;2.40;;;1.20;;
11990;SDS011;6055;52.522;13.446;2022-07-05T05:41:38;1.55;;;1.02;;
11990;SDS011;6055;52.522;13.446;2022-07-05T05:44:03;1.80;;;1.45;;
11990;SDS011;6055;52.522;13.446;2022-07-05T05:46:29;2.50;;;1.38;;
11990;SDS011;6055;52.522;13.446;2022-07-05T05:48:55;2.65;;;1.15;;
11990;SDS011;6055;52.522;13.446;2022-07-05T05:51:20;1.45;;;1.30;;
11990;SDS011;6055;52.522;13.446;2022-07-05T05:53:46;2.28;;;1.27;;
11990;SDS011;6055;52.522;13.446;2022-07-05T05:56:14;5.85;;;1.65;;
11990;SDS011;6055;52.522;13.446;2022-07-05T05:58:49;2.58;;;1.50;;
11990;SDS011;6055;52.522;13.446;2022-07-05T06:01:15;2.50;;;1.35;;
11990;SDS011;6055;52.522;13.446;2022-07-05T06:03:41;1.77;;;1.10;;
11990;SDS011;6055;52.522;13.446;2022-07-05T06:06:06;1.13;;;0.98;;
11990;SDS011;6055;52.522;13.446;2022-07-05T06:08:32;2.45;;;1.10;;
11990;SDS011;6055;52.522;13.446;2022-07-05T06:10:57;2.97;;;1.15;;
11990;SDS011;6055;52.522;13.446;2022-07-05T06:13:23;1.35;;;1.23;;
11990;SDS011;6055;52.522;13.446;2022-07-05T06:15:48;1.65;;;1.20;;
11990;SDS011;6055;52.522;13.446;2022-07-05T06:18:14;1.30;;;1.20;;
11990;SDS011;6055;52.522;13.446;2022-07-05T06:20:39;2.97;;;1.27;;
11990;SDS011;6055;52.522;13.446;2022-07-05T06:23:05;1.67;;;1.10;;
11990;SDS011;6055;52.522;13.446;2022-07-05T06:25:32;1.35;;;1.00;;
11990;SDS011;6055;52.522;13.446;2022-07-05T06:28:03;1.45;;;1.02;;
11990;SDS011;6055;52.522;13.446;2022-07-05T06:30:30;1.77;;;1.30;;
11990;SDS011;6055;52.522;13.446;2022-07-05T06:32:57;1.63;;;0.95;;
11990;SDS011;6055;52.522;13.446;2022-07-05T06:35:23;2.10;;;1.27;;
11990;SDS011;6055;52.522;13.446;2022-07-05T06:37:50;1.30;;;1.00;;
11990;SDS011;6055;52.522;13.446;2022-07-05T06:40:20;2.40;;;1.23;;
11990;SDS011;6055;52.522;13.446;2022-07-05T06:42:47;1.38;;;1.02;;
11990;SDS011;6055;52.522;13.446;2022-07-05T06:45:13;4.38;;;1.40;;
11990;SDS011;6055;52.522;13.446;2022-07-05T06:47:39;1.35;;;1.00;;
11990;SDS011;6055;52.522;13.446;2022-07-05T06:50:05;1.05;;;0.90;;
11990;SDS011;6055;52.522;13.446;2022-07-05T06:52:31;2.83;;;1.30;;
11990;SDS011;6055;52.522;13.446;2022-07-05T06:55:00;4.60;;;1.52;;
11990;SDS011;6055;52.522;13.446;2022-07-05T06:57:26;2.30;;;1.17;;
11990;SDS011;6055;52.522;13.446;2022-07-05T06:59:52;3.70;;;1.25;;
11990;SDS011;6055;52.522;13.446;2022-07-05T07:02:18;1.45;;;1.20;;
11990;SDS011;6055;52.522;13.446;2022-07-05T07:04:45;1.95;;;0.98;;
11990;SDS011;6055;52.522;13.446;2022-07-05T07:07:11;3.35;;;1.20;;
11990;SDS011;6055;52.522;13.446;2022-07-05T07:09:56;2.30;;;1.35;;
11990;SDS011;6055;52.522;13.446;2022-07-05T07:12:25;3.50;;;1.27;;
11990;SDS011;6055;52.522;13.446;2022-07-05T07:14:51;1.20;;;1.10;;
11990;SDS011;6055;52.522;13.446;2022-07-05T07:17:17;1.90;;;1.17;;
11990;SDS011;6055;52.522;13.446;2022-07-05T07:19:42;2.33;;;1.38;;
11990;SDS011;6055;52.522;13.446;2022-07-05T07:22:08;2.78;;;1.33;;
11990;SDS011;6055;52.522;13.446;2022-07-05T07:24:33;1.27;;;1.15;;
11990;SDS011;6055;52.522;13.446;2022-07-05T07:26:59;2.13;;;1.30;;
11990;SDS011;6055;52.522;13.446;2022-07-05T07:29:27;3.70;;;1.08;;
11990;SDS011;6055;52.522;13.446;2022-07-05T07:31:54;3.67;;;1.40;;
11990;SDS011;6055;52.522;13.446;2022-07-05T07:34:20;3.22;;;1.20;;
11990;SDS011;6055;52.522;13.446;2022-07-05T07:36:46;1.83;;;1.10;;
11990;SDS011;6055;52.522;13.446;2022-07-05T07:39:12;2.55;;;1.30;;
11990;SDS011;6055;52.522;13.446;2022-07-05T07:41:38;2.45;;;1.42;;
11990;SDS011;6055;52.522;13.446;2022-07-05T07:44:03;1.30;;;1.10;;
11990;SDS011;6055;52.522;13.446;2022-07-05T07:46:29;4.28;;;1.30;;
11990;SDS011;6055;52.522;13.446;2022-07-05T07:48:55;2.97;;;1.20;;
11990;SDS011;6055;52.522;13.446;2022-07-05T07:51:20;2.97;;;1.38;;
11990;SDS011;6055;52.522;13.446;2022-07-05T07:53:46;3.15;;;1.35;;
11990;SDS011;6055;52.522;13.446;2022-07-05T07:56:12;1.58;;;1.30;;
11990;SDS011;6055;52.522;13.446;2022-07-05T07:58:37;2.50;;;1.40;;
11990;SDS011;6055;52.522;13.446;2022-07-05T08:01:03;1.27;;;1.00;;
11990;SDS011;6055;52.522;13.446;2022-07-05T08:03:30;1.38;;;1.00;;
11990;SDS011;6055;52.522;13.446;2022-07-05T08:05:57;2.03;;;1.30;;
11990;SDS011;6055;52.522;13.446;2022-07-05T08:08:22;1.52;;;1.23;;
11990;SDS011;6055;52.522;13.446;2022-07-05T08:10:48;1.35;;;1.13;;
11990;SDS011;6055;52.522;13.446;2022-07-05T08:13:13;1.67;;;1.20;;
11990;SDS011;6055;52.522;13.446;2022-07-05T08:15:39;2.70;;;1.40;;
11990;SDS011;6055;52.522;13.446;2022-07-05T08:18:04;1.45;;;1.20;;
11990;SDS011;6055;52.522;13.446;2022-07-05T08:20:49;2.90;;;1.15;;
11990;SDS011;6055;52.522;13.446;2022-07-05T08:23:33;4.32;;;1.30;;
11990;SDS011;6055;52.522;13.446;2022-07-05T08:26:00;1.88;;;1.00;;
11990;SDS011;6055;52.522;13.446;2022-07-05T08:28:25;1.95;;;1.10;;
11990;SDS011;6055;52.522;13.446;2022-07-05T08:30:51;2.72;;;1.00;;
11990;SDS011;6055;52.522;13.446;2022-07-05T08:33:17;1.27;;;1.00;;
11990;SDS011;6055;52.522;13.446;2022-07-05T08:35:42;1.70;;;0.98;;
11990;SDS011;6055;52.522;13.446;2022-07-05T08:38:08;2.22;;;1.25;;
11990;SDS011;6055;52.522;13.446;2022-07-05T08:46:51;1.75;;;1.15;;
11990;SDS011;6055;52.522;13.446;2022-07-05T08:49:22;0.93;;;0.82;;
11990;SDS011;6055;52.522;13.446;2022-07-05T08:51:53;1.25;;;1.15;;
11990;SDS011;6055;52.522;13.446;2022-07-05T08:54:19;1.63;;;1.27;;
11990;SDS011;6055;52.522;13.446;2022-07-05T08:56:46;1.60;;;1.20;;
11990;SDS011;6055;52.522;13.446;2022-07-05T08:59:12;2.03;;;1.30;;
11990;SDS011;6055;52.522;13.446;2022-07-05T09:01:38;4.18;;;1.38;;
11990;SDS011;6055;52.522;13.446;2022-07-05T09:04:05;1.42;;;1.30;;
11990;SDS011;6055;52.522;13.446;2022-07-05T09:06:32;4.07;;;1.10;;
11990;SDS011;6055;52.522;13.446;2022-07-05T09:09:02;2.42;;;1.25;;
11990;SDS011;6055;52.522;13.446;2022-07-05T09:11:38;2.55;;;1.30;;
11990;SDS011;6055;52.522;13.446;2022-07-05T09:14:06;3.90;;;1.17;;
11990;SDS011;6055;52.522;13.446;2022-07-05T09:16:44;1.55;;;1.20;;
11990;SDS011;6055;52.522;13.446;2022-07-05T09:19:10;2.63;;;1.33;;
11990;SDS011;6055;52.522;13.446;2022-07-05T09:21:35;1.48;;;1.38;;
11990;SDS011;6055;52.522;13.446;2022-07-05T09:24:08;3.20;;;1.40;;
11990;SDS011;6055;52.522;13.446;2022-07-05T09:26:35;4.40;;;1.40;;
11990;SDS011;6055;52.522;13.446;2022-07-05T09:29:04;2.15;;;1.25;;
11990;SDS011;6055;52.522;13.446;2022-07-05T09:31:36;1.60;;;1.40;;
11990;SDS011;6055;52.522;13.446;2022-07-05T09:34:03;1.25;;;1.15;;
11990;SDS011;6055;52.522;13.446;2022-07-05T09:42:12;1.77;;;1.50;;
11990;SDS011;6055;52.522;13.446;2022-07-05T09:44:44;3.38;;;1.55;;
11990;SDS011;6055;52.522;13.446;2022-07-05T09:47:11;2.55;;;1.73;;
11990;SDS011;6055;52.522;13.446;2022-07-05T09:49:39;2.20;;;1.40;;
11990;SDS011;6055;52.522;13.446;2022-07-05T09:52:09;1.67;;;1.58;;
11990;SDS011;6055;52.522;13.446;2022-07-05T09:54:35;1.42;;;1.30;;
11990;SDS011;6055;52.522;13.446;2022-07-05T09:57:01;1.92;;;1.25;;
11990;SDS011;6055;52.522;13.446;2022-07-05T09:59:26;3.05;;;2.00;;
11990;SDS011;6055;52.522;13.446;2022-07-05T10:01:52;1.50;;;1.40;;
11990;SDS011;6055;52.522;13.446;2022-07-05T10:04:17;3.13;;;1.42;;
11990;SDS011;6055;52.522;13.446;2022-07-05T10:06:43;1.80;;;1.00;;
11990;SDS011;6055;52.522;13.446;2022-07-05T10:09:09;1.95;;;1.30;;
11990;SDS011;6055;52.522;13.446;2022-07-05T10:11:38;2.70;;;1.70;;
11990;SDS011;6055;52.522;13.446;2022-07-05T10:14:09;2.38;;;1.58;;
11990;SDS011;6055;52.522;13.446;2022-07-05T10:16:36;2.25;;;1.40;;
11990;SDS011;6055;52.522;13.446;2022-07-05T10:19:02;1.95;;;1.55;;
11990;SDS011;6055;52.522;13.446;2022-07-05T10:21:29;1.30;;;1.20;;
11990;SDS011;6055;52.522;13.446;2022-07-05T10:23:54;2.70;;;1.77;;
11990;SDS011;6055;52.522;13.446;2022-07-05T10:26:21;2.22;;;1.10;;
11990;SDS011;6055;52.522;13.446;2022-07-05T10:28:49;1.58;;;1.05;;
11990;SDS011;6055;52.522;13.446;2022-07-05T10:31:16;2.65;;;1.42;;
11990;SDS011;6055;52.522;13.446;2022-07-05T10:33:42;1.58;;;1.48;;
11990;SDS011;6055;52.522;13.446;2022-07-05T10:36:11;1.98;;;1.60;;
11990;SDS011;6055;52.522;13.446;2022-07-05T10:38:38;3.03;;;1.30;;
11990;SDS011;6055;52.522;13.446;2022-07-05T10:41:08;2.50;;;1.17;;
11990;SDS011;6055;52.522;13.446;2022-07-05T10:43:37;2.72;;;1.48;;
11990;SDS011;6055;52.522;13.446;2022-07-05T10:46:03;2.95;;;1.65;;
11990;SDS011;6055;52.522;13.446;2022-07-05T10:48:32;2.17;;;1.58;;
11990;SDS011;6055;52.522;13.446;2022-07-05T10:58:36;3.08;;;1.42;;
11990;SDS011;6055;52.522;13.446;2022-07-05T11:04:24;2.63;;;1.63;;
11990;SDS011;6055;52.522;13.446;2022-07-05T11:06:52;4.05;;;1.80;;
11990;SDS011;6055;52.522;13.446;2022-07-05T11:09:19;1.50;;;1.40;;
11990;SDS011;6055;52.522;13.446;2022-07-05T11:11:46;3.33;;;1.77;;
11990;SDS011;6055;52.522;13.446;2022-07-05T11:22:25;2.00;;;1.55;;
11990;SDS011;6055;52.522;13.446;2022-07-05T11:24:51;2.55;;;1.40;;
11990;SDS011;6055;52.522;13.446;2022-07-05T11:27:17;2.15;;;1.50;;
11990;SDS011;6055;52.522;13.446;2022-07-05T11:29:43;3.20;;;2.28;;
11990;SDS011;6055;52.522;13.446;2022-07-05T11:34:36;1.88;;;1.52;;
11990;SDS011;6055;52.522;13.446;2022-07-05T11:42:49;2.80;;;1.48;;
11990;SDS011;6055;52.522;13.446;2022-07-05T11:45:15;1.67;;;1.30;;
11990;SDS011;6055;52.522;13.446;2022-07-05T11:47:41;2.75;;;1.27;;
11990;SDS011;6055;52.522;13.446;2022-07-05T11:50:08;3.67;;;1.58;;
11990;SDS011;6055;52.522;13.446;2022-07-05T11:52:38;2.75;;;1.40;;
11990;SDS011;6055;52.522;13.446;2022-07-05T11:55:08;1.30;;;1.20;;
11990;SDS011;6055;52.522;13.446;2022-07-05T11:57:35;2.13;;;1.60;;
11990;SDS011;6055;52.522;13.446;2022-07-05T12:00:02;1.30;;;1.20;;
11990;SDS011;6055;52.522;13.446;2022-07-05T12:09:25;1.30;;;1.17;;
11990;SDS011;6055;52.522;13.446;2022-07-05T12:11:53;3.53;;;1.42;;
11990;SDS011;6055;52.522;13.446;2022-07-05T12:14:46;2.22;;;1.27;;
11990;SDS011;6055;52.522;13.446;2022-07-05T12:17:17;1.55;;;1.10;;
11990;SDS011;6055;52.522;13.446;2022-07-05T12:19:44;2.90;;;1.23;;
11990;SDS011;6055;52.522;13.446;2022-07-05T12:22:10;2.55;;;1.50;;
11990;SDS011;6055;52.522;13.446;2022-07-05T12:24:36;2.75;;;1.33;;
11990;SDS011;6055;52.522;13.446;2022-07-05T12:27:02;1.65;;;1.17;;
11990;SDS011;6055;52.522;13.446;2022-07-05T12:29:28;1.48;;;1.38;;
11990;SDS011;6055;52.522;13.446;2022-07-05T12:32:01;2.47;;;1.60;;
11990;SDS011;6055;52.522;13.446;2022-07-05T12:34:28;1.25;;;1.15;;
11990;SDS011;6055;52.522;13.446;2022-07-05T12:36:54;1.40;;;1.30;;
11990;SDS011;6055;52.522;13.446;2022-07-05T12:39:20;3.33;;;1.50;;
11990;SDS011;6055;52.522;13.446;2022-07-05T12:41:46;1.30;;;1.20;;
11990;SDS011;6055;52.522;13.446;2022-07-05T12:44:11;2.78;;;1.17;;
11990;SDS011;6055;52.522;13.446;2022-07-05T12:46:37;1.40;;;1.30;;
11990;SDS011;6055;52.522;13.446;2022-07-05T12:49:04;1.27;;;1.17;;
11990;SDS011;6055;52.522;13.446;2022-07-05T12:51:31;1.92;;;1.30;;
11990;SDS011;6055;52.522;13.446;2022-07-05T12:54:00;1.60;;;1.50;;
11990;SDS011;6055;52.522;13.446;2022-07-05T12:56:49;2.63;;;1.35;;
11990;SDS011;6055;52.522;13.446;2022-07-05T12:59:35;2.60;;;1.50;;
11990;SDS011;6055;52.522;13.446;2022-07-05T13:02:01;1.85;;;1.50;;
11990;SDS011;6055;52.522;13.446;2022-07-05T13:04:27;2.15;;;1.33;;
11990;SDS011;6055;52.522;13.446;2022-07-05T13:06:54;1.60;;;1.17;;
11990;SDS011;6055;52.522;13.446;2022-07-05T13:09:30;3.22;;;1.63;;
11990;SDS011;6055;52.522;13.446;2022-07-05T13:12:13;1.48;;;1.30;;
11990;SDS011;6055;52.522;13.446;2022-07-05T13:14:50;2.60;;;1.38;;
11990;SDS011;6055;52.522;13.446;2022-07-05T13:17:17;1.40;;;1.30;;
11990;SDS011;6055;52.522;13.446;2022-07-05T13:19:46;5.60;;;1.30;;
11990;SDS011;6055;52.522;13.446;2022-07-05T13:22:13;2.78;;;1.40;;
11990;SDS011;6055;52.522;13.446;2022-07-05T13:24:39;3.25;;;1.40;;
11990;SDS011;6055;52.522;13.446;2022-07-05T13:27:06;1.48;;;1.23;;
11990;SDS011;6055;52.522;13.446;2022-07-05T13:29:32;1.83;;;1.40;;
11990;SDS011;6055;52.522;13.446;2022-07-05T13:31:58;5.60;;;1.25;;
11990;SDS011;6055;52.522;13.446;2022-07-05T13:34:23;2.83;;;1.20;;
11990;SDS011;6055;52.522;13.446;2022-07-05T13:36:51;1.58;;;1.20;;
11990;SDS011;6055;52.522;13.446;2022-07-05T13:39:17;2.00;;;1.17;;
11990;SDS011;6055;52.522;13.446;2022-07-05T13:41:47;1.30;;;1.17;;
11990;SDS011;6055;52.522;13.446;2022-07-05T13:44:13;4.35;;;1.20;;
11990;SDS011;6055;52.522;13.446;2022-07-05T13:46:38;3.28;;;1.40;;
11990;SDS011;6055;52.522;13.446;2022-07-05T13:49:04;1.98;;;1.30;;
11990;SDS011;6055;52.522;13.446;2022-07-05T13:51:30;2.25;;;1.42;;
11990;SDS011;6055;52.522;13.446;2022-07-05T13:53:55;2.30;;;1.10;;
11990;SDS011;6055;52.522;13.446;2022-07-05T13:56:21;2.17;;;1.17;;
11990;SDS011;6055;52.522;13.446;2022-07-05T13:58:47;1.65;;;1.40;;
11990;SDS011;6055;52.522;13.446;2022-07-05T14:01:13;2.03;;;1.13;;
11990;SDS011;6055;52.522;13.446;2022-07-05T14:03:39;2.92;;;1.35;;
11990;SDS011;6055;52.522;13.446;2022-07-05T14:06:04;1.40;;;1.30;;
11990;SDS011;6055;52.522;13.446;2022-07-05T14:08:30;1.40;;;1.30;;
11990;SDS011;6055;52.522;13.446;2022-07-05T14:10:56;1.98;;;1.25;;
11990;SDS011;6055;52.522;13.446;2022-07-05T14:13:26;1.92;;;1.10;;
11990;SDS011;6055;52.522;13.446;2022-07-05T14:15:52;2.10;;;1.20;;
11990;SDS011;6055;52.522;13.446;2022-07-05T14:18:19;1.88;;;1.33;;
11990;SDS011;6055;52.522;13.446;2022-07-05T14:20:45;2.10;;;1.20;;
11990;SDS011;6055;52.522;13.446;2022-07-05T14:23:12;1.23;;;1.13;;
11990;SDS011;6055;52.522;13.446;2022-07-05T14:25:41;1.52;;;1.30;;
11990;SDS011;6055;52.522;13.446;2022-07-05T14:28:07;1.75;;;1.45;;
11990;SDS011;6055;52.522;13.446;2022-07-05T14:30:34;2.55;;;1.27;;
11990;SDS011;6055;52.522;13.446;2022-07-05T14:33:10;1.63;;;1.33;;
11990;SDS011;6055;52.522;13.446;2022-07-05T14:35:37;1.45;;;1.25;;
11990;SDS011;6055;52.522;13.446;2022-07-05T14:38:03;1.17;;;1.08;;
11990;SDS011;6055;52.522;13.446;2022-07-05T14:40:29;3.88;;;1.77;;
11990;SDS011;6055;52.522;13.446;2022-07-05T14:42:56;2.95;;;1.20;;
11990;SDS011;6055;52.522;13.446;2022-07-05T14:45:25;1.20;;;1.10;;
11990;SDS011;6055;52.522;13.446;2022-07-05T14:47:52;3.00;;;1.40;;
11990;SDS011;6055;52.522;13.446;2022-07-05T14:50:18;3.40;;;1.35;;
11990;SDS011;6055;52.522;13.446;2022-07-05T14:52:45;2.65;;;1.30;;
11990;SDS011;6055;52.522;13.446;2022-07-05T14:55:12;1.80;;;1.23;;
11990;SDS011;6055;52.522;13.446;2022-07-05T14:57:38;4.00;;;1.13;;
11990;SDS011;6055;52.522;13.446;2022-07-05T15:00:05;2.83;;;1.20;;
11990;SDS011;6055;52.522;13.446;2022-07-05T15:02:33;1.48;;;1.38;;
11990;SDS011;6055;52.522;13.446;2022-07-05T15:04:59;1.55;;;1.27;;
11990;SDS011;6055;52.522;13.446;2022-07-05T15:07:24;1.73;;;1.40;;
11990;SDS011;6055;52.522;13.446;2022-07-05T15:09:53;2.17;;;1.10;;
11990;SDS011;6055;52.522;13.446;2022-07-05T15:12:19;2.33;;;1.17;;
11990;SDS011;6055;52.522;13.446;2022-07-05T15:14:45;1.92;;;1.40;;
11990;SDS011;6055;52.522;13.446;2022-07-05T15:17:11;1.30;;;1.20;;
11990;SDS011;6055;52.522;13.446;2022-07-05T15:19:36;1.48;;;1.13;;
11990;SDS011;6055;52.522;13.446;2022-07-05T15:22:04;3.20;;;1.48;;
11990;SDS011;6055;52.522;13.446;2022-07-05T15:24:29;2.15;;;1.33;;
11990;SDS011;6055;52.522;13.446;2022-07-05T15:26:55;1.45;;;1.30;;
11990;SDS011;6055;52.522;13.446;2022-07-05T15:29:21;2.38;;;1.48;;
11990;SDS011;6055;52.522;13.446;2022-07-05T15:31:46;2.70;;;1.23;;